sensor_id;sensor_type;location;lat;lon;timestamp;P1;durP1;ratioP1;P2;durP2;ratioP2
25191;SDS011;13143;50.924;5.320;2023-07-13T00:01:51;13.18;;;2.13;;
25191;SDS011;13143;50.924;5.320;2023-07-13T00:04:18;7.53;;;1.42;;
25191;SDS011;13143;50.924;5.320;2023-07-13T00:06:46;8.15;;;2.00;;
25191;SDS011;13143;50.924;5.320;2023-07-13T00:09:16;12.88;;;2.28;;
25191;SDS011;13143;50.924;5.320;2023-07-13T00:11:43;6.47;;;1.88;;
25191;SDS011;13143;50.924;5.320;2023-07-13T00:14:13;7.50;;;1.80;;
25191;SDS011;13143;50.924;5.320;2023-07-13T00:16:41;6.70;;;1.75;;
25191;SDS011;13143;50.924;5.320;2023-07-13T00:19:09;12.10;;;2.13;;
25191;SDS011;13143;50.924;5.320;2023-07-13T00:21:37;7.57;;;2.17;;
25191;SDS011;13143;50.924;5.320;2023-07-13T00:24:05;7.13;;;1.70;;
25191;SDS011;13143;50.924;5.320;2023-07-13T00:26:31;9.63;;;2.80;;
25191;SDS011;13143;50.924;5.320;2023-07-13T00:28:58;9.07;;;2.00;;
25191;SDS011;13143;50.924;5.320;2023-07-13T00:31:24;7.40;;;1.88;;
25191;SDS011;13143;50.924;5.320;2023-07-13T00:33:51;8.23;;;2.00;;
25191;SDS011;13143;50.924;5.320;2023-07-13T00:36:17;8.05;;;1.65;;
25191;SDS011;13143;50.924;5.320;2023-07-13T00:38:43;8.13;;;2.72;;
25191;SDS011;13143;50.924;5.320;2023-07-13T00:41:09;10.60;;;1.80;;
25191;SDS011;13143;50.924;5.320;2023-07-13T00:43:36;9.07;;;2.03;;
25191;SDS011;13143;50.924;5.320;2023-07-13T00:46:10;8.43;;;1.70;;
25191;SDS011;13143;50.924;5.320;2023-07-13T00:48:38;7.93;;;1.95;;
25191;SDS011;13143;50.924;5.320;2023-07-13T00:51:05;11.57;;;2.30;;
25191;SDS011;13143;50.924;5.320;2023-07-13T00:53:32;8.55;;;2.00;;
25191;SDS011;13143;50.924;5.320;2023-07-13T00:55:59;8.43;;;2.13;;
25191;SDS011;13143;50.924;5.320;2023-07-13T00:58:26;5.65;;;1.90;;
25191;SDS011;13143;50.924;5.320;2023-07-13T01:00:53;9.38;;;2.05;;
25191;SDS011;13143;50.924;5.320;2023-07-13T01:03:19;10.60;;;1.92;;
25191;SDS011;13143;50.924;5.320;2023-07-13T01:05:46;6.90;;;2.05;;
25191;SDS011;13143;50.924;5.320;2023-07-13T01:08:15;7.88;;;1.90;;
25191;SDS011;13143;50.924;5.320;2023-07-13T01:10:50;16.17;;;2.20;;
25191;SDS011;13143;50.924;5.320;2023-07-13T01:13:19;10.05;;;1.95;;
25191;SDS011;13143;50.924;5.320;2023-07-13T01:15:46;8.85;;;2.38;;
25191;SDS011;13143;50.924;5.320;2023-07-13T01:18:18;8.23;;;2.78;;
25191;SDS011;13143;50.924;5.320;2023-07-13T01:20:53;10.73;;;2.38;;
25191;SDS011;13143;50.924;5.320;2023-07-13T01:23:24;11.95;;;2.95;;
25191;SDS011;13143;50.924;5.320;2023-07-13T01:25:51;10.10;;;2.28;;
25191;SDS011;13143;50.924;5.320;2023-07-13T01:28:18;15.75;;;2.28;;
25191;SDS011;13143;50.924;5.320;2023-07-13T01:30:45;9.57;;;2.55;;
25191;SDS011;13143;50.924;5.320;2023-07-13T01:33:13;10.43;;;2.08;;
25191;SDS011;13143;50.924;5.320;2023-07-13T01:35:40;8.75;;;2.22;;
25191;SDS011;13143;50.924;5.320;2023-07-13T01:38:07;6.78;;;2.05;;
25191;SDS011;13143;50.924;5.320;2023-07-13T01:40:34;9.02;;;1.88;;
25191;SDS011;13143;50.924;5.320;2023-07-13T01:43:02;15.18;;;2.40;;
25191;SDS011;13143;50.924;5.320;2023-07-13T01:45:28;12.00;;;2.20;;
25191;SDS011;13143;50.924;5.320;2023-07-13T01:47:54;12.85;;;2.35;;
25191;SDS011;13143;50.924;5.320;2023-07-13T01:50:21;9.65;;;2.20;;
25191;SDS011;13143;50.924;5.320;2023-07-13T01:52:47;6.40;;;1.83;;
25191;SDS011;13143;50.924;5.320;2023-07-13T01:55:13;12.95;;;2.50;;
25191;SDS011;13143;50.924;5.320;2023-07-13T01:57:39;8.05;;;1.98;;
25191;SDS011;13143;50.924;5.320;2023-07-13T02:00:06;12.65;;;2.00;;
25191;SDS011;13143;50.924;5.320;2023-07-13T02:02:34;7.93;;;2.35;;
25191;SDS011;13143;50.924;5.320;2023-07-13T02:05:00;11.02;;;2.20;;
25191;SDS011;13143;50.924;5.320;2023-07-13T02:07:27;10.57;;;2.67;;
25191;SDS011;13143;50.924;5.320;2023-07-13T02:09:53;11.68;;;2.85;;
25191;SDS011;13143;50.924;5.320;2023-07-13T02:12:19;13.60;;;2.47;;
25191;SDS011;13143;50.924;5.320;2023-07-13T02:14:45;8.50;;;2.50;;
25191;SDS011;13143;50.924;5.320;2023-07-13T02:17:11;9.98;;;2.60;;
25191;SDS011;13143;50.924;5.320;2023-07-13T02:19:37;13.00;;;2.10;;
25191;SDS011;13143;50.924;5.320;2023-07-13T02:22:03;11.38;;;2.67;;
25191;SDS011;13143;50.924;5.320;2023-07-13T02:24:29;22.15;;;3.00;;
25191;SDS011;13143;50.924;5.320;2023-07-13T02:26:55;11.25;;;2.35;;
25191;SDS011;13143;50.924;5.320;2023-07-13T02:29:22;13.25;;;2.25;;
25191;SDS011;13143;50.924;5.320;2023-07-13T02:31:48;10.20;;;2.33;;
25191;SDS011;13143;50.924;5.320;2023-07-13T02:34:14;12.68;;;2.50;;
25191;SDS011;13143;50.924;5.320;2023-07-13T02:36:40;6.65;;;2.30;;
25191;SDS011;13143;50.924;5.320;2023-07-13T02:39:07;7.65;;;2.30;;
25191;SDS011;13143;50.924;5.320;2023-07-13T02:41:34;10.88;;;2.13;;
25191;SDS011;13143;50.924;5.320;2023-07-13T02:44:00;13.32;;;3.42;;
25191;SDS011;13143;50.924;5.320;2023-07-13T02:46:31;8.30;;;2.20;;
25191;SDS011;13143;50.924;5.320;2023-07-13T02:48:58;15.05;;;2.97;;
25191;SDS011;13143;50.924;5.320;2023-07-13T02:51:25;8.32;;;2.38;;
25191;SDS011;13143;50.924;5.320;2023-07-13T02:53:51;12.98;;;2.40;;
25191;SDS011;13143;50.924;5.320;2023-07-13T02:56:18;8.85;;;2.47;;
25191;SDS011;13143;50.924;5.320;2023-07-13T02:58:49;12.07;;;2.80;;
25191;SDS011;13143;50.924;5.320;2023-07-13T03:01:15;10.13;;;2.58;;
25191;SDS011;13143;50.924;5.320;2023-07-13T03:03:44;11.65;;;2.25;;
25191;SDS011;13143;50.924;5.320;2023-07-13T03:06:11;15.57;;;3.15;;
25191;SDS011;13143;50.924;5.320;2023-07-13T03:08:38;8.13;;;2.00;;
25191;SDS011;13143;50.924;5.320;2023-07-13T03:11:06;11.25;;;2.50;;
25191;SDS011;13143;50.924;5.320;2023-07-13T03:13:34;12.65;;;2.40;;
25191;SDS011;13143;50.924;5.320;2023-07-13T03:16:00;10.55;;;2.75;;
25191;SDS011;13143;50.924;5.320;2023-07-13T03:18:27;18.85;;;3.30;;
25191;SDS011;13143;50.924;5.320;2023-07-13T03:20:53;10.63;;;2.88;;
25191;SDS011;13143;50.924;5.320;2023-07-13T03:23:20;12.70;;;3.03;;
25191;SDS011;13143;50.924;5.320;2023-07-13T03:25:47;9.98;;;2.58;;
25191;SDS011;13143;50.924;5.320;2023-07-13T03:28:14;15.52;;;3.20;;
25191;SDS011;13143;50.924;5.320;2023-07-13T03:30:41;12.48;;;2.78;;
25191;SDS011;13143;50.924;5.320;2023-07-13T03:33:07;13.25;;;2.85;;
25191;SDS011;13143;50.924;5.320;2023-07-13T03:35:34;10.32;;;3.00;;
25191;SDS011;13143;50.924;5.320;2023-07-13T03:38:00;9.35;;;2.83;;
25191;SDS011;13143;50.924;5.320;2023-07-13T03:40:27;14.35;;;2.67;;
25191;SDS011;13143;50.924;5.320;2023-07-13T03:42:53;10.73;;;3.35;;
25191;SDS011;13143;50.924;5.320;2023-07-13T03:45:19;15.73;;;3.20;;
25191;SDS011;13143;50.924;5.320;2023-07-13T03:47:45;10.45;;;2.65;;
25191;SDS011;13143;50.924;5.320;2023-07-13T03:50:11;13.10;;;2.80;;
25191;SDS011;13143;50.924;5.320;2023-07-13T03:52:37;14.27;;;2.50;;
25191;SDS011;13143;50.924;5.320;2023-07-13T03:55:04;18.85;;;4.18;;
25191;SDS011;13143;50.924;5.320;2023-07-13T03:57:31;13.55;;;2.70;;
25191;SDS011;13143;50.924;5.320;2023-07-13T03:59:57;19.13;;;3.55;;
25191;SDS011;13143;50.924;5.320;2023-07-13T04:02:23;15.32;;;3.03;;
25191;SDS011;13143;50.924;5.320;2023-07-13T04:04:50;13.02;;;3.35;;
25191;SDS011;13143;50.924;5.320;2023-07-13T04:07:16;11.27;;;3.17;;
25191;SDS011;13143;50.924;5.320;2023-07-13T04:09:42;15.38;;;3.65;;
25191;SDS011;13143;50.924;5.320;2023-07-13T04:12:08;17.77;;;3.40;;
25191;SDS011;13143;50.924;5.320;2023-07-13T04:14:34;17.10;;;3.33;;
25191;SDS011;13143;50.924;5.320;2023-07-13T04:17:00;19.75;;;3.78;;
25191;SDS011;13143;50.924;5.320;2023-07-13T04:19:26;14.23;;;3.03;;
25191;SDS011;13143;50.924;5.320;2023-07-13T04:21:52;10.07;;;3.10;;
25191;SDS011;13143;50.924;5.320;2023-07-13T04:24:18;10.55;;;3.35;;
25191;SDS011;13143;50.924;5.320;2023-07-13T04:26:44;16.85;;;3.60;;
25191;SDS011;13143;50.924;5.320;2023-07-13T04:29:10;16.20;;;3.67;;
25191;SDS011;13143;50.924;5.320;2023-07-13T04:31:36;13.75;;;3.55;;
25191;SDS011;13143;50.924;5.320;2023-07-13T04:34:03;13.20;;;4.00;;
25191;SDS011;13143;50.924;5.320;2023-07-13T04:36:29;18.60;;;3.80;;
25191;SDS011;13143;50.924;5.320;2023-07-13T04:38:55;13.55;;;3.60;;
25191;SDS011;13143;50.924;5.320;2023-07-13T04:41:21;19.40;;;3.80;;
25191;SDS011;13143;50.924;5.320;2023-07-13T04:43:48;20.13;;;3.70;;
25191;SDS011;13143;50.924;5.320;2023-07-13T04:46:15;11.48;;;3.25;;
25191;SDS011;13143;50.924;5.320;2023-07-13T04:48:45;17.10;;;3.38;;
25191;SDS011;13143;50.924;5.320;2023-07-13T04:51:11;24.10;;;4.85;;
25191;SDS011;13143;50.924;5.320;2023-07-13T04:53:37;12.32;;;4.13;;
25191;SDS011;13143;50.924;5.320;2023-07-13T04:56:04;16.95;;;3.63;;
25191;SDS011;13143;50.924;5.320;2023-07-13T04:58:30;17.08;;;3.42;;
25191;SDS011;13143;50.924;5.320;2023-07-13T05:01:02;13.05;;;3.33;;
25191;SDS011;13143;50.924;5.320;2023-07-13T05:03:30;17.60;;;3.50;;
25191;SDS011;13143;50.924;5.320;2023-07-13T05:05:57;15.77;;;4.22;;
25191;SDS011;13143;50.924;5.320;2023-07-13T05:08:25;19.30;;;4.13;;
25191;SDS011;13143;50.924;5.320;2023-07-13T05:10:52;20.65;;;3.60;;
25191;SDS011;13143;50.924;5.320;2023-07-13T05:13:18;13.23;;;3.80;;
25191;SDS011;13143;50.924;5.320;2023-07-13T05:15:45;20.90;;;3.45;;
25191;SDS011;13143;50.924;5.320;2023-07-13T05:18:11;13.45;;;3.92;;
25191;SDS011;13143;50.924;5.320;2023-07-13T05:20:37;13.57;;;3.25;;
25191;SDS011;13143;50.924;5.320;2023-07-13T05:23:03;14.02;;;3.10;;
25191;SDS011;13143;50.924;5.320;2023-07-13T05:25:29;17.48;;;3.92;;
25191;SDS011;13143;50.924;5.320;2023-07-13T05:27:55;17.20;;;3.63;;
25191;SDS011;13143;50.924;5.320;2023-07-13T05:30:21;15.80;;;3.83;;
25191;SDS011;13143;50.924;5.320;2023-07-13T05:32:47;14.15;;;3.40;;
25191;SDS011;13143;50.924;5.320;2023-07-13T05:35:13;15.98;;;3.63;;
25191;SDS011;13143;50.924;5.320;2023-07-13T05:37:39;20.23;;;3.90;;
25191;SDS011;13143;50.924;5.320;2023-07-13T05:40:06;21.52;;;3.65;;
25191;SDS011;13143;50.924;5.320;2023-07-13T05:42:32;17.00;;;4.35;;
25191;SDS011;13143;50.924;5.320;2023-07-13T05:44:59;14.23;;;3.10;;
25191;SDS011;13143;50.924;5.320;2023-07-13T05:47:25;20.52;;;3.72;;
25191;SDS011;13143;50.924;5.320;2023-07-13T05:49:51;18.23;;;3.97;;
25191;SDS011;13143;50.924;5.320;2023-07-13T05:52:17;14.80;;;3.65;;
25191;SDS011;13143;50.924;5.320;2023-07-13T05:54:43;20.08;;;4.05;;
25191;SDS011;13143;50.924;5.320;2023-07-13T05:57:09;13.07;;;3.85;;
25191;SDS011;13143;50.924;5.320;2023-07-13T05:59:35;16.92;;;3.45;;
25191;SDS011;13143;50.924;5.320;2023-07-13T06:02:02;20.88;;;4.30;;
25191;SDS011;13143;50.924;5.320;2023-07-13T06:04:28;16.95;;;3.63;;
25191;SDS011;13143;50.924;5.320;2023-07-13T06:06:54;17.23;;;4.15;;
25191;SDS011;13143;50.924;5.320;2023-07-13T06:09:20;16.80;;;3.85;;
25191;SDS011;13143;50.924;5.320;2023-07-13T06:11:47;19.95;;;4.25;;
25191;SDS011;13143;50.924;5.320;2023-07-13T06:14:13;17.77;;;4.20;;
25191;SDS011;13143;50.924;5.320;2023-07-13T06:16:39;17.35;;;3.83;;
25191;SDS011;13143;50.924;5.320;2023-07-13T06:19:05;20.23;;;4.28;;
25191;SDS011;13143;50.924;5.320;2023-07-13T06:21:31;21.40;;;3.85;;
25191;SDS011;13143;50.924;5.320;2023-07-13T06:23:57;22.45;;;4.45;;
25191;SDS011;13143;50.924;5.320;2023-07-13T06:26:24;24.80;;;3.85;;
25191;SDS011;13143;50.924;5.320;2023-07-13T06:28:50;19.25;;;4.03;;
25191;SDS011;13143;50.924;5.320;2023-07-13T06:31:16;27.02;;;4.55;;
25191;SDS011;13143;50.924;5.320;2023-07-13T06:33:42;20.35;;;4.07;;
25191;SDS011;13143;50.924;5.320;2023-07-13T06:36:09;22.80;;;4.40;;
25191;SDS011;13143;50.924;5.320;2023-07-13T06:38:35;18.90;;;4.28;;
25191;SDS011;13143;50.924;5.320;2023-07-13T06:41:02;24.15;;;4.93;;
25191;SDS011;13143;50.924;5.320;2023-07-13T06:43:28;20.92;;;4.95;;
25191;SDS011;13143;50.924;5.320;2023-07-13T06:45:55;15.75;;;3.65;;
25191;SDS011;13143;50.924;5.320;2023-07-13T06:48:21;17.52;;;4.10;;
25191;SDS011;13143;50.924;5.320;2023-07-13T06:50:48;23.13;;;4.03;;
25191;SDS011;13143;50.924;5.320;2023-07-13T06:53:18;21.83;;;4.88;;
25191;SDS011;13143;50.924;5.320;2023-07-13T06:55:45;21.27;;;3.88;;
25191;SDS011;13143;50.924;5.320;2023-07-13T06:58:12;18.15;;;3.92;;
25191;SDS011;13143;50.924;5.320;2023-07-13T07:00:40;19.92;;;4.13;;
25191;SDS011;13143;50.924;5.320;2023-07-13T07:03:06;23.08;;;4.15;;
25191;SDS011;13143;50.924;5.320;2023-07-13T07:05:32;18.65;;;4.18;;
25191;SDS011;13143;50.924;5.320;2023-07-13T07:07:58;20.00;;;4.07;;
25191;SDS011;13143;50.924;5.320;2023-07-13T07:10:24;15.30;;;3.97;;
25191;SDS011;13143;50.924;5.320;2023-07-13T07:12:51;22.70;;;4.05;;
25191;SDS011;13143;50.924;5.320;2023-07-13T07:15:17;23.80;;;4.82;;
25191;SDS011;13143;50.924;5.320;2023-07-13T07:17:43;23.40;;;4.93;;
25191;SDS011;13143;50.924;5.320;2023-07-13T07:20:10;21.20;;;4.57;;
25191;SDS011;13143;50.924;5.320;2023-07-13T07:22:36;19.70;;;3.90;;
25191;SDS011;13143;50.924;5.320;2023-07-13T07:25:02;22.52;;;4.75;;
25191;SDS011;13143;50.924;5.320;2023-07-13T07:27:29;16.45;;;4.18;;
25191;SDS011;13143;50.924;5.320;2023-07-13T07:29:55;15.32;;;4.40;;
25191;SDS011;13143;50.924;5.320;2023-07-13T07:32:23;17.67;;;4.65;;
25191;SDS011;13143;50.924;5.320;2023-07-13T07:34:49;23.63;;;4.60;;
25191;SDS011;13143;50.924;5.320;2023-07-13T07:37:15;11.82;;;4.10;;
25191;SDS011;13143;50.924;5.320;2023-07-13T07:39:42;19.70;;;4.72;;
25191;SDS011;13143;50.924;5.320;2023-07-13T07:42:09;19.70;;;4.35;;
25191;SDS011;13143;50.924;5.320;2023-07-13T07:44:35;14.40;;;4.05;;
25191;SDS011;13143;50.924;5.320;2023-07-13T07:47:01;24.15;;;4.30;;
25191;SDS011;13143;50.924;5.320;2023-07-13T07:49:27;21.35;;;4.30;;
25191;SDS011;13143;50.924;5.320;2023-07-13T07:51:53;21.75;;;4.55;;
25191;SDS011;13143;50.924;5.320;2023-07-13T07:54:19;18.42;;;4.47;;
25191;SDS011;13143;50.924;5.320;2023-07-13T07:56:45;20.85;;;4.32;;
25191;SDS011;13143;50.924;5.320;2023-07-13T07:59:11;20.33;;;4.22;;
25191;SDS011;13143;50.924;5.320;2023-07-13T08:01:37;21.45;;;4.60;;
25191;SDS011;13143;50.924;5.320;2023-07-13T08:04:04;20.40;;;4.50;;
25191;SDS011;13143;50.924;5.320;2023-07-13T08:06:31;20.45;;;5.18;;
25191;SDS011;13143;50.924;5.320;2023-07-13T08:08:59;20.10;;;4.55;;
25191;SDS011;13143;50.924;5.320;2023-07-13T08:11:25;12.63;;;3.50;;
25191;SDS011;13143;50.924;5.320;2023-07-13T08:13:51;22.45;;;4.45;;
25191;SDS011;13143;50.924;5.320;2023-07-13T08:16:17;18.08;;;4.07;;
25191;SDS011;13143;50.924;5.320;2023-07-13T08:18:43;17.33;;;4.30;;
25191;SDS011;13143;50.924;5.320;2023-07-13T08:21:09;15.88;;;4.25;;
25191;SDS011;13143;50.924;5.320;2023-07-13T08:23:36;26.13;;;5.15;;
25191;SDS011;13143;50.924;5.320;2023-07-13T08:26:02;18.92;;;4.32;;
25191;SDS011;13143;50.924;5.320;2023-07-13T08:28:29;15.10;;;4.43;;
25191;SDS011;13143;50.924;5.320;2023-07-13T08:31:01;17.48;;;4.25;;
25191;SDS011;13143;50.924;5.320;2023-07-13T08:33:28;19.08;;;4.03;;
25191;SDS011;13143;50.924;5.320;2023-07-13T08:35:54;18.48;;;3.60;;
25191;SDS011;13143;50.924;5.320;2023-07-13T08:38:20;18.08;;;3.60;;
25191;SDS011;13143;50.924;5.320;2023-07-13T08:40:52;14.75;;;3.55;;
25191;SDS011;13143;50.924;5.320;2023-07-13T08:45:51;13.65;;;4.25;;
25191;SDS011;13143;50.924;5.320;2023-07-13T08:48:26;18.83;;;4.18;;
25191;SDS011;13143;50.924;5.320;2023-07-13T08:51:12;18.13;;;4.40;;
25191;SDS011;13143;50.924;5.320;2023-07-13T08:54:02;19.17;;;3.83;;
25191;SDS011;13143;50.924;5.320;2023-07-13T08:56:49;14.50;;;3.83;;
25191;SDS011;13143;50.924;5.320;2023-07-13T08:59:19;20.13;;;4.10;;
25191;SDS011;13143;50.924;5.320;2023-07-13T09:04:49;12.38;;;3.63;;
25191;SDS011;13143;50.924;5.320;2023-07-13T09:07:31;15.27;;;3.80;;
25191;SDS011;13143;50.924;5.320;2023-07-13T09:10:18;16.40;;;3.60;;
25191;SDS011;13143;50.924;5.320;2023-07-13T09:12:54;16.08;;;3.75;;
25191;SDS011;13143;50.924;5.320;2023-07-13T09:15:25;16.13;;;3.10;;
25191;SDS011;13143;50.924;5.320;2023-07-13T09:17:57;13.38;;;3.35;;
25191;SDS011;13143;50.924;5.320;2023-07-13T09:23:06;15.88;;;3.42;;
25191;SDS011;13143;50.924;5.320;2023-07-13T09:25:37;11.80;;;3.40;;
25191;SDS011;13143;50.924;5.320;2023-07-13T09:30:50;11.25;;;3.50;;
25191;SDS011;13143;50.924;5.320;2023-07-13T09:33:24;11.35;;;3.10;;
25191;SDS011;13143;50.924;5.320;2023-07-13T09:35:55;12.52;;;3.30;;
25191;SDS011;13143;50.924;5.320;2023-07-13T09:38:24;11.50;;;3.45;;
25191;SDS011;13143;50.924;5.320;2023-07-13T09:40:59;13.48;;;3.40;;
25191;SDS011;13143;50.924;5.320;2023-07-13T09:44:08;11.80;;;3.00;;
25191;SDS011;13143;50.924;5.320;2023-07-13T09:46:43;15.95;;;3.72;;
25191;SDS011;13143;50.924;5.320;2023-07-13T09:49:11;11.95;;;3.50;;
25191;SDS011;13143;50.924;5.320;2023-07-13T09:51:39;12.57;;;3.58;;
25191;SDS011;13143;50.924;5.320;2023-07-13T09:54:17;13.43;;;3.80;;
25191;SDS011;13143;50.924;5.320;2023-07-13T09:56:44;12.35;;;3.22;;
25191;SDS011;13143;50.924;5.320;2023-07-13T09:59:18;16.10;;;3.42;;
25191;SDS011;13143;50.924;5.320;2023-07-13T10:01:49;13.75;;;2.85;;
25191;SDS011;13143;50.924;5.320;2023-07-13T10:04:17;12.98;;;3.22;;
25191;SDS011;13143;50.924;5.320;2023-07-13T10:06:44;11.98;;;2.75;;
25191;SDS011;13143;50.924;5.320;2023-07-13T10:09:15;11.45;;;2.63;;
25191;SDS011;13143;50.924;5.320;2023-07-13T10:11:42;9.75;;;2.90;;
25191;SDS011;13143;50.924;5.320;2023-07-13T10:14:14;12.52;;;2.70;;
25191;SDS011;13143;50.924;5.320;2023-07-13T10:16:43;8.50;;;2.38;;
25191;SDS011;13143;50.924;5.320;2023-07-13T10:21:58;10.32;;;2.83;;
25191;SDS011;13143;50.924;5.320;2023-07-13T10:24:30;11.95;;;2.60;;
25191;SDS011;13143;50.924;5.320;2023-07-13T10:29:32;14.25;;;2.83;;
25191;SDS011;13143;50.924;5.320;2023-07-13T10:32:12;9.23;;;2.22;;
25191;SDS011;13143;50.924;5.320;2023-07-13T10:34:39;10.07;;;3.05;;
25191;SDS011;13143;50.924;5.320;2023-07-13T10:37:15;11.35;;;2.60;;
25191;SDS011;13143;50.924;5.320;2023-07-13T10:39:48;6.53;;;2.70;;
25191;SDS011;13143;50.924;5.320;2023-07-13T10:42:21;10.20;;;2.75;;
25191;SDS011;13143;50.924;5.320;2023-07-13T10:44:56;6.28;;;2.13;;
25191;SDS011;13143;50.924;5.320;2023-07-13T10:47:22;8.98;;;2.67;;
25191;SDS011;13143;50.924;5.320;2023-07-13T10:49:50;10.23;;;2.40;;
25191;SDS011;13143;50.924;5.320;2023-07-13T10:55:32;10.32;;;2.78;;
25191;SDS011;13143;50.924;5.320;2023-07-13T10:58:00;16.38;;;3.20;;
25191;SDS011;13143;50.924;5.320;2023-07-13T11:00:42;10.65;;;2.20;;
25191;SDS011;13143;50.924;5.320;2023-07-13T11:03:14;16.27;;;3.10;;
25191;SDS011;13143;50.924;5.320;2023-07-13T11:05:43;11.00;;;2.53;;
25191;SDS011;13143;50.924;5.320;2023-07-13T11:08:31;12.00;;;2.55;;
25191;SDS011;13143;50.924;5.320;2023-07-13T11:11:02;10.67;;;2.43;;
25191;SDS011;13143;50.924;5.320;2023-07-13T11:18:51;7.47;;;2.28;;
25191;SDS011;13143;50.924;5.320;2023-07-13T11:21:32;11.90;;;2.60;;
25191;SDS011;13143;50.924;5.320;2023-07-13T11:26:58;11.73;;;2.28;;
25191;SDS011;13143;50.924;5.320;2023-07-13T11:31:59;10.05;;;2.80;;
25191;SDS011;13143;50.924;5.320;2023-07-13T11:34:28;8.80;;;2.00;;
25191;SDS011;13143;50.924;5.320;2023-07-13T11:36:59;6.78;;;2.17;;
25191;SDS011;13143;50.924;5.320;2023-07-13T11:39:30;10.05;;;2.45;;
25191;SDS011;13143;50.924;5.320;2023-07-13T11:42:01;8.95;;;2.20;;
25191;SDS011;13143;50.924;5.320;2023-07-13T11:44:32;9.85;;;2.53;;
25191;SDS011;13143;50.924;5.320;2023-07-13T11:47:01;11.60;;;2.33;;
25191;SDS011;13143;50.924;5.320;2023-07-13T11:49:40;9.18;;;2.53;;
25191;SDS011;13143;50.924;5.320;2023-07-13T11:52:30;14.85;;;2.38;;
25191;SDS011;13143;50.924;5.320;2023-07-13T11:55:00;12.18;;;2.22;;
25191;SDS011;13143;50.924;5.320;2023-07-13T11:57:31;8.95;;;2.38;;
25191;SDS011;13143;50.924;5.320;2023-07-13T12:00:09;8.20;;;2.50;;
25191;SDS011;13143;50.924;5.320;2023-07-13T12:02:42;9.20;;;2.30;;
25191;SDS011;13143;50.924;5.320;2023-07-13T12:05:11;9.20;;;2.00;;
25191;SDS011;13143;50.924;5.320;2023-07-13T12:07:39;8.27;;;2.05;;
25191;SDS011;13143;50.924;5.320;2023-07-13T12:10:17;10.43;;;2.72;;
25191;SDS011;13143;50.924;5.320;2023-07-13T12:12:53;8.65;;;2.05;;
25191;SDS011;13143;50.924;5.320;2023-07-13T12:15:20;8.48;;;2.53;;
25191;SDS011;13143;50.924;5.320;2023-07-13T12:17:48;4.70;;;2.25;;
25191;SDS011;13143;50.924;5.320;2023-07-13T12:20:25;11.55;;;2.47;;
25191;SDS011;13143;50.924;5.320;2023-07-13T12:22:54;7.63;;;2.42;;
25191;SDS011;13143;50.924;5.320;2023-07-13T12:25:20;7.00;;;2.42;;
25191;SDS011;13143;50.924;5.320;2023-07-13T12:27:48;8.25;;;2.22;;
25191;SDS011;13143;50.924;5.320;2023-07-13T12:30:26;8.05;;;1.90;;
25191;SDS011;13143;50.924;5.320;2023-07-13T12:35:41;7.90;;;2.22;;
25191;SDS011;13143;50.924;5.320;2023-07-13T12:38:12;8.48;;;1.77;;
25191;SDS011;13143;50.924;5.320;2023-07-13T12:40:38;9.05;;;1.80;;
25191;SDS011;13143;50.924;5.320;2023-07-13T12:43:10;6.45;;;2.10;;
25191;SDS011;13143;50.924;5.320;2023-07-13T12:45:38;6.18;;;2.20;;
25191;SDS011;13143;50.924;5.320;2023-07-13T12:48:06;4.82;;;1.60;;
25191;SDS011;13143;50.924;5.320;2023-07-13T12:50:42;8.30;;;2.08;;
25191;SDS011;13143;50.924;5.320;2023-07-13T12:53:14;7.95;;;2.00;;
25191;SDS011;13143;50.924;5.320;2023-07-13T12:55:50;6.20;;;1.90;;
25191;SDS011;13143;50.924;5.320;2023-07-13T12:58:25;6.32;;;2.22;;
25191;SDS011;13143;50.924;5.320;2023-07-13T13:00:54;7.35;;;1.63;;
25191;SDS011;13143;50.924;5.320;2023-07-13T13:03:33;9.20;;;1.70;;
25191;SDS011;13143;50.924;5.320;2023-07-13T13:06:02;4.38;;;1.52;;
25191;SDS011;13143;50.924;5.320;2023-07-13T13:08:33;7.65;;;2.20;;
25191;SDS011;13143;50.924;5.320;2023-07-13T13:11:01;5.97;;;1.90;;
25191;SDS011;13143;50.924;5.320;2023-07-13T13:13:27;7.60;;;1.67;;
25191;SDS011;13143;50.924;5.320;2023-07-13T13:15:54;5.88;;;1.90;;
25191;SDS011;13143;50.924;5.320;2023-07-13T13:18:22;7.65;;;2.15;;
25191;SDS011;13143;50.924;5.320;2023-07-13T13:20:50;5.75;;;2.33;;
25191;SDS011;13143;50.924;5.320;2023-07-13T13:23:18;5.32;;;1.90;;
25191;SDS011;13143;50.924;5.320;2023-07-13T13:25:46;6.13;;;1.90;;
25191;SDS011;13143;50.924;5.320;2023-07-13T13:28:15;6.15;;;1.95;;
25191;SDS011;13143;50.924;5.320;2023-07-13T13:30:43;6.82;;;2.10;;
25191;SDS011;13143;50.924;5.320;2023-07-13T13:33:11;5.45;;;2.03;;
25191;SDS011;13143;50.924;5.320;2023-07-13T13:35:38;10.52;;;3.00;;
25191;SDS011;13143;50.924;5.320;2023-07-13T13:38:13;9.88;;;2.47;;
25191;SDS011;13143;50.924;5.320;2023-07-13T13:40:41;6.80;;;2.33;;
25191;SDS011;13143;50.924;5.320;2023-07-13T13:43:18;8.27;;;1.88;;
25191;SDS011;13143;50.924;5.320;2023-07-13T13:45:52;6.70;;;1.90;;
25191;SDS011;13143;50.924;5.320;2023-07-13T13:48:29;3.58;;;2.00;;
25191;SDS011;13143;50.924;5.320;2023-07-13T13:50:57;3.70;;;2.00;;
25191;SDS011;13143;50.924;5.320;2023-07-13T13:53:24;7.40;;;1.90;;
25191;SDS011;13143;50.924;5.320;2023-07-13T13:55:50;6.47;;;2.10;;
25191;SDS011;13143;50.924;5.320;2023-07-13T13:58:18;4.82;;;1.63;;
25191;SDS011;13143;50.924;5.320;2023-07-13T14:00:45;4.95;;;2.22;;
25191;SDS011;13143;50.924;5.320;2023-07-13T14:03:18;4.90;;;2.10;;
25191;SDS011;13143;50.924;5.320;2023-07-13T14:05:46;5.30;;;2.08;;
25191;SDS011;13143;50.924;5.320;2023-07-13T14:08:14;4.07;;;1.80;;
25191;SDS011;13143;50.924;5.320;2023-07-13T14:10:42;5.10;;;1.77;;
25191;SDS011;13143;50.924;5.320;2023-07-13T14:13:16;5.85;;;2.10;;
25191;SDS011;13143;50.924;5.320;2023-07-13T14:15:45;9.75;;;2.10;;
25191;SDS011;13143;50.924;5.320;2023-07-13T14:18:11;7.47;;;2.05;;
25191;SDS011;13143;50.924;5.320;2023-07-13T14:20:47;4.93;;;2.08;;
25191;SDS011;13143;50.924;5.320;2023-07-13T14:23:14;8.60;;;2.80;;
25191;SDS011;13143;50.924;5.320;2023-07-13T14:25:42;5.28;;;2.55;;
25191;SDS011;13143;50.924;5.320;2023-07-13T14:28:27;5.15;;;2.20;;
25191;SDS011;13143;50.924;5.320;2023-07-13T14:30:54;5.10;;;2.25;;
25191;SDS011;13143;50.924;5.320;2023-07-13T14:33:20;3.90;;;2.08;;
25191;SDS011;13143;50.924;5.320;2023-07-13T14:35:46;5.18;;;2.15;;
25191;SDS011;13143;50.924;5.320;2023-07-13T14:38:13;7.63;;;2.17;;
25191;SDS011;13143;50.924;5.320;2023-07-13T14:40:43;5.18;;;2.08;;
25191;SDS011;13143;50.924;5.320;2023-07-13T14:43:10;8.13;;;2.55;;
25191;SDS011;13143;50.924;5.320;2023-07-13T14:45:41;6.63;;;2.28;;
25191;SDS011;13143;50.924;5.320;2023-07-13T14:48:21;7.07;;;2.60;;
25191;SDS011;13143;50.924;5.320;2023-07-13T14:50:53;5.80;;;1.88;;
25191;SDS011;13143;50.924;5.320;2023-07-13T14:53:22;5.40;;;2.20;;
25191;SDS011;13143;50.924;5.320;2023-07-13T14:55:50;3.10;;;1.90;;
25191;SDS011;13143;50.924;5.320;2023-07-13T14:58:16;7.82;;;2.35;;
25191;SDS011;13143;50.924;5.320;2023-07-13T15:00:42;5.72;;;2.03;;
25191;SDS011;13143;50.924;5.320;2023-07-13T15:03:20;4.05;;;2.17;;
25191;SDS011;13143;50.924;5.320;2023-07-13T15:05:49;4.20;;;2.15;;
25191;SDS011;13143;50.924;5.320;2023-07-13T15:08:16;6.53;;;2.00;;
25191;SDS011;13143;50.924;5.320;2023-07-13T15:10:42;6.05;;;2.20;;
25191;SDS011;13143;50.924;5.320;2023-07-13T15:13:18;5.05;;;2.05;;
25191;SDS011;13143;50.924;5.320;2023-07-13T15:15:46;10.82;;;2.70;;
25191;SDS011;13143;50.924;5.320;2023-07-13T15:18:14;5.43;;;2.15;;
25191;SDS011;13143;50.924;5.320;2023-07-13T15:20:43;6.25;;;2.20;;